sensor_id;sensor_type;location;lat;lon;timestamp;P1;durP1;ratioP1;P2;durP2;ratioP2
66179;SDS011;52986;44.028;20.466;2022-12-19T00:00:32;31.17;;;11.45;;
66179;SDS011;52986;44.028;20.466;2022-12-19T00:02:58;28.00;;;10.57;;
66179;SDS011;52986;44.028;20.466;2022-12-19T00:05:23;29.98;;;10.13;;
66179;SDS011;52986;44.028;20.466;2022-12-19T00:07:49;28.60;;;10.70;;
66179;SDS011;52986;44.028;20.466;2022-12-19T00:10:14;27.90;;;9.77;;
66179;SDS011;52986;44.028;20.466;2022-12-19T00:12:40;28.08;;;9.98;;
66179;SDS011;52986;44.028;20.466;2022-12-19T00:15:05;27.88;;;10.40;;
66179;SDS011;52986;44.028;20.466;2022-12-19T00:17:31;29.42;;;9.55;;
66179;SDS011;52986;44.028;20.466;2022-12-19T00:19:57;35.42;;;13.23;;
66179;SDS011;52986;44.028;20.466;2022-12-19T00:22:22;28.77;;;10.60;;
66179;SDS011;52986;44.028;20.466;2022-12-19T00:24:47;35.85;;;13.13;;
66179;SDS011;52986;44.028;20.466;2022-12-19T00:27:13;32.45;;;11.68;;
66179;SDS011;52986;44.028;20.466;2022-12-19T00:29:38;30.67;;;12.07;;
66179;SDS011;52986;44.028;20.466;2022-12-19T00:32:04;26.92;;;9.90;;
66179;SDS011;52986;44.028;20.466;2022-12-19T00:34:29;27.95;;;10.38;;
66179;SDS011;52986;44.028;20.466;2022-12-19T00:36:54;26.48;;;10.55;;
66179;SDS011;52986;44.028;20.466;2022-12-19T00:39:20;30.67;;;12.17;;
66179;SDS011;52986;44.028;20.466;2022-12-19T00:41:45;25.80;;;9.95;;
66179;SDS011;52986;44.028;20.466;2022-12-19T00:44:11;30.55;;;12.05;;
66179;SDS011;52986;44.028;20.466;2022-12-19T00:46:38;29.33;;;11.13;;
66179;SDS011;52986;44.028;20.466;2022-12-19T00:49:03;30.38;;;11.65;;
66179;SDS011;52986;44.028;20.466;2022-12-19T00:51:30;26.48;;;10.15;;
66179;SDS011;52986;44.028;20.466;2022-12-19T00:53:57;28.15;;;9.57;;
66179;SDS011;52986;44.028;20.466;2022-12-19T00:56:27;27.95;;;10.48;;
66179;SDS011;52986;44.028;20.466;2022-12-19T00:58:55;25.75;;;9.27;;
66179;SDS011;52986;44.028;20.466;2022-12-19T01:01:26;27.80;;;9.30;;
66179;SDS011;52986;44.028;20.466;2022-12-19T01:03:53;26.73;;;9.77;;
66179;SDS011;52986;44.028;20.466;2022-12-19T01:06:21;27.30;;;9.82;;
66179;SDS011;52986;44.028;20.466;2022-12-19T01:08:47;25.45;;;8.85;;
66179;SDS011;52986;44.028;20.466;2022-12-19T01:11:12;23.63;;;9.00;;
66179;SDS011;52986;44.028;20.466;2022-12-19T01:13:38;25.25;;;9.13;;
66179;SDS011;52986;44.028;20.466;2022-12-19T01:16:08;23.30;;;8.25;;
66179;SDS011;52986;44.028;20.466;2022-12-19T01:18:36;24.92;;;8.75;;
66179;SDS011;52986;44.028;20.466;2022-12-19T01:21:05;24.15;;;8.52;;
66179;SDS011;52986;44.028;20.466;2022-12-19T01:23:32;24.52;;;8.75;;
66179;SDS011;52986;44.028;20.466;2022-12-19T01:25:57;24.02;;;9.35;;
66179;SDS011;52986;44.028;20.466;2022-12-19T01:28:23;27.73;;;9.20;;
66179;SDS011;52986;44.028;20.466;2022-12-19T01:30:49;27.10;;;9.70;;
66179;SDS011;52986;44.028;20.466;2022-12-19T01:33:16;26.80;;;9.85;;
66179;SDS011;52986;44.028;20.466;2022-12-19T01:35:42;24.13;;;9.25;;
66179;SDS011;52986;44.028;20.466;2022-12-19T01:38:16;29.17;;;10.48;;
66179;SDS011;52986;44.028;20.466;2022-12-19T01:40:50;34.40;;;11.70;;
66179;SDS011;52986;44.028;20.466;2022-12-19T01:43:20;30.50;;;11.80;;
66179;SDS011;52986;44.028;20.466;2022-12-19T01:45:46;31.17;;;12.27;;
66179;SDS011;52986;44.028;20.466;2022-12-19T01:48:19;33.55;;;11.95;;
66179;SDS011;52986;44.028;20.466;2022-12-19T01:50:58;31.05;;;11.80;;
66179;SDS011;52986;44.028;20.466;2022-12-19T01:53:28;29.67;;;11.10;;
66179;SDS011;52986;44.028;20.466;2022-12-19T01:56:14;30.02;;;11.23;;
66179;SDS011;52986;44.028;20.466;2022-12-19T01:58:42;30.75;;;11.15;;
66179;SDS011;52986;44.028;20.466;2022-12-19T02:01:12;30.70;;;11.65;;
66179;SDS011;52986;44.028;20.466;2022-12-19T02:03:39;30.08;;;10.40;;
66179;SDS011;52986;44.028;20.466;2022-12-19T02:06:05;29.75;;;12.07;;
66179;SDS011;52986;44.028;20.466;2022-12-19T02:08:32;31.70;;;11.32;;
66179;SDS011;52986;44.028;20.466;2022-12-19T02:10:59;29.98;;;11.13;;
66179;SDS011;52986;44.028;20.466;2022-12-19T02:13:24;30.67;;;11.88;;
66179;SDS011;52986;44.028;20.466;2022-12-19T02:16:12;28.13;;;11.07;;
66179;SDS011;52986;44.028;20.466;2022-12-19T02:24:47;29.90;;;10.32;;
66179;SDS011;52986;44.028;20.466;2022-12-19T02:33:41;31.10;;;10.52;;
66179;SDS011;52986;44.028;20.466;2022-12-19T02:36:15;35.75;;;12.70;;
66179;SDS011;52986;44.028;20.466;2022-12-19T02:38:47;30.20;;;10.55;;
66179;SDS011;52986;44.028;20.466;2022-12-19T02:43:49;28.77;;;10.25;;
66179;SDS011;52986;44.028;20.466;2022-12-19T02:46:19;27.27;;;10.18;;
66179;SDS011;52986;44.028;20.466;2022-12-19T02:48:48;29.70;;;10.73;;
66179;SDS011;52986;44.028;20.466;2022-12-19T02:51:14;27.77;;;9.90;;
66179;SDS011;52986;44.028;20.466;2022-12-19T02:53:40;31.25;;;11.10;;
66179;SDS011;52986;44.028;20.466;2022-12-19T02:56:10;28.67;;;10.40;;
66179;SDS011;52986;44.028;20.466;2022-12-19T03:01:18;29.50;;;9.75;;
66179;SDS011;52986;44.028;20.466;2022-12-19T03:06:52;24.42;;;9.80;;
66179;SDS011;52986;44.028;20.466;2022-12-19T03:09:26;28.90;;;10.68;;
66179;SDS011;52986;44.028;20.466;2022-12-19T03:11:56;26.58;;;10.73;;
66179;SDS011;52986;44.028;20.466;2022-12-19T03:14:27;28.08;;;10.77;;
66179;SDS011;52986;44.028;20.466;2022-12-19T03:16:54;25.02;;;10.32;;
66179;SDS011;52986;44.028;20.466;2022-12-19T03:19:20;30.00;;;10.20;;
66179;SDS011;52986;44.028;20.466;2022-12-19T03:21:49;27.27;;;9.63;;
66179;SDS011;52986;44.028;20.466;2022-12-19T03:24:16;29.13;;;10.60;;
66179;SDS011;52986;44.028;20.466;2022-12-19T03:26:47;28.33;;;10.45;;
66179;SDS011;52986;44.028;20.466;2022-12-19T03:29:20;29.50;;;10.85;;
66179;SDS011;52986;44.028;20.466;2022-12-19T03:32:10;30.60;;;10.95;;
66179;SDS011;52986;44.028;20.466;2022-12-19T03:34:39;30.75;;;11.93;;
66179;SDS011;52986;44.028;20.466;2022-12-19T03:37:08;29.17;;;10.77;;
66179;SDS011;52986;44.028;20.466;2022-12-19T03:39:39;30.13;;;10.63;;
66179;SDS011;52986;44.028;20.466;2022-12-19T03:42:05;31.20;;;12.15;;
66179;SDS011;52986;44.028;20.466;2022-12-19T03:44:50;29.23;;;11.10;;
66179;SDS011;52986;44.028;20.466;2022-12-19T03:47:24;29.08;;;10.93;;
66179;SDS011;52986;44.028;20.466;2022-12-19T03:49:53;28.40;;;10.93;;
66179;SDS011;52986;44.028;20.466;2022-12-19T03:54:50;29.58;;;10.57;;
66179;SDS011;52986;44.028;20.466;2022-12-19T03:57:28;26.45;;;9.13;;
66179;SDS011;52986;44.028;20.466;2022-12-19T04:02:37;25.95;;;9.68;;
66179;SDS011;52986;44.028;20.466;2022-12-19T04:05:06;25.52;;;9.23;;
66179;SDS011;52986;44.028;20.466;2022-12-19T04:07:34;28.98;;;10.02;;
66179;SDS011;52986;44.028;20.466;2022-12-19T04:10:03;30.77;;;10.90;;
66179;SDS011;52986;44.028;20.466;2022-12-19T04:12:32;32.00;;;11.43;;
66179;SDS011;52986;44.028;20.466;2022-12-19T04:15:01;31.23;;;11.38;;
66179;SDS011;52986;44.028;20.466;2022-12-19T04:17:45;32.95;;;12.77;;
66179;SDS011;52986;44.028;20.466;2022-12-19T04:20:15;33.30;;;11.25;;
66179;SDS011;52986;44.028;20.466;2022-12-19T04:25:38;28.65;;;10.82;;
66179;SDS011;52986;44.028;20.466;2022-12-19T04:28:13;30.95;;;11.10;;
66179;SDS011;52986;44.028;20.466;2022-12-19T04:31:00;34.90;;;12.23;;
66179;SDS011;52986;44.028;20.466;2022-12-19T04:33:26;32.60;;;11.68;;
66179;SDS011;52986;44.028;20.466;2022-12-19T04:35:52;28.48;;;10.55;;
66179;SDS011;52986;44.028;20.466;2022-12-19T04:38:21;31.08;;;11.32;;
66179;SDS011;52986;44.028;20.466;2022-12-19T04:40:47;33.38;;;12.23;;
66179;SDS011;52986;44.028;20.466;2022-12-19T04:43:12;27.83;;;10.43;;
66179;SDS011;52986;44.028;20.466;2022-12-19T04:45:39;33.20;;;11.50;;
66179;SDS011;52986;44.028;20.466;2022-12-19T04:48:06;35.10;;;12.75;;
66179;SDS011;52986;44.028;20.466;2022-12-19T04:50:31;30.73;;;11.55;;
66179;SDS011;52986;44.028;20.466;2022-12-19T04:52:58;23.92;;;9.32;;
66179;SDS011;52986;44.028;20.466;2022-12-19T04:55:23;28.48;;;11.32;;
66179;SDS011;52986;44.028;20.466;2022-12-19T04:57:49;26.83;;;8.93;;
66179;SDS011;52986;44.028;20.466;2022-12-19T05:00:14;27.00;;;9.55;;
66179;SDS011;52986;44.028;20.466;2022-12-19T05:02:40;25.52;;;9.63;;
66179;SDS011;52986;44.028;20.466;2022-12-19T05:05:06;30.42;;;11.35;;
66179;SDS011;52986;44.028;20.466;2022-12-19T05:07:31;36.67;;;12.88;;
66179;SDS011;52986;44.028;20.466;2022-12-19T05:09:57;34.28;;;12.15;;
66179;SDS011;52986;44.028;20.466;2022-12-19T05:12:23;30.25;;;10.57;;
66179;SDS011;52986;44.028;20.466;2022-12-19T05:14:49;28.00;;;9.50;;
66179;SDS011;52986;44.028;20.466;2022-12-19T05:17:14;28.25;;;10.18;;
66179;SDS011;52986;44.028;20.466;2022-12-19T05:19:40;26.63;;;9.07;;
66179;SDS011;52986;44.028;20.466;2022-12-19T05:22:05;24.95;;;9.52;;
66179;SDS011;52986;44.028;20.466;2022-12-19T05:24:30;30.13;;;10.93;;
66179;SDS011;52986;44.028;20.466;2022-12-19T05:26:56;31.67;;;11.02;;
66179;SDS011;52986;44.028;20.466;2022-12-19T05:29:21;27.27;;;9.98;;
66179;SDS011;52986;44.028;20.466;2022-12-19T05:31:46;30.00;;;10.70;;
66179;SDS011;52986;44.028;20.466;2022-12-19T05:34:12;39.58;;;14.07;;
66179;SDS011;52986;44.028;20.466;2022-12-19T05:36:37;30.80;;;11.35;;
66179;SDS011;52986;44.028;20.466;2022-12-19T05:39:03;31.85;;;11.25;;
66179;SDS011;52986;44.028;20.466;2022-12-19T05:41:28;34.55;;;13.23;;
66179;SDS011;52986;44.028;20.466;2022-12-19T05:43:54;39.30;;;13.32;;
66179;SDS011;52986;44.028;20.466;2022-12-19T05:46:20;42.13;;;15.18;;
66179;SDS011;52986;44.028;20.466;2022-12-19T05:48:47;35.78;;;13.25;;
66179;SDS011;52986;44.028;20.466;2022-12-19T05:51:13;31.02;;;11.10;;
66179;SDS011;52986;44.028;20.466;2022-12-19T05:53:39;28.77;;;10.70;;
66179;SDS011;52986;44.028;20.466;2022-12-19T05:56:06;30.98;;;11.20;;
66179;SDS011;52986;44.028;20.466;2022-12-19T05:58:33;32.10;;;11.57;;
66179;SDS011;52986;44.028;20.466;2022-12-19T06:01:06;32.67;;;11.57;;
66179;SDS011;52986;44.028;20.466;2022-12-19T06:03:31;34.75;;;12.10;;
66179;SDS011;52986;44.028;20.466;2022-12-19T06:05:56;31.13;;;11.80;;
66179;SDS011;52986;44.028;20.466;2022-12-19T06:08:22;32.10;;;11.55;;
66179;SDS011;52986;44.028;20.466;2022-12-19T06:10:47;31.85;;;11.00;;
66179;SDS011;52986;44.028;20.466;2022-12-19T06:13:13;32.58;;;11.80;;
66179;SDS011;52986;44.028;20.466;2022-12-19T06:15:38;31.83;;;11.30;;
66179;SDS011;52986;44.028;20.466;2022-12-19T06:18:03;32.23;;;11.73;;
66179;SDS011;52986;44.028;20.466;2022-12-19T06:20:29;29.88;;;10.68;;
66179;SDS011;52986;44.028;20.466;2022-12-19T06:22:54;34.08;;;11.77;;
66179;SDS011;52986;44.028;20.466;2022-12-19T06:25:19;36.67;;;12.70;;
66179;SDS011;52986;44.028;20.466;2022-12-19T06:27:45;59.77;;;17.93;;
66179;SDS011;52986;44.028;20.466;2022-12-19T06:30:10;41.63;;;13.63;;
66179;SDS011;52986;44.028;20.466;2022-12-19T06:32:36;40.53;;;13.25;;
66179;SDS011;52986;44.028;20.466;2022-12-19T06:35:01;49.67;;;17.02;;
66179;SDS011;52986;44.028;20.466;2022-12-19T06:37:26;60.55;;;21.30;;
66179;SDS011;52986;44.028;20.466;2022-12-19T06:39:52;41.50;;;13.88;;
66179;SDS011;52986;44.028;20.466;2022-12-19T06:42:17;29.70;;;10.32;;
66179;SDS011;52986;44.028;20.466;2022-12-19T06:44:52;29.85;;;10.55;;
66179;SDS011;52986;44.028;20.466;2022-12-19T06:47:19;37.33;;;13.07;;
66179;SDS011;52986;44.028;20.466;2022-12-19T06:49:45;32.35;;;10.75;;
66179;SDS011;52986;44.028;20.466;2022-12-19T06:52:12;30.60;;;11.32;;
66179;SDS011;52986;44.028;20.466;2022-12-19T06:54:38;28.02;;;9.98;;
66179;SDS011;52986;44.028;20.466;2022-12-19T06:57:03;30.70;;;10.50;;
66179;SDS011;52986;44.028;20.466;2022-12-19T06:59:28;30.67;;;10.68;;
66179;SDS011;52986;44.028;20.466;2022-12-19T07:01:56;30.17;;;10.93;;
66179;SDS011;52986;44.028;20.466;2022-12-19T07:04:31;30.45;;;10.90;;
66179;SDS011;52986;44.028;20.466;2022-12-19T07:07:01;29.20;;;9.95;;
66179;SDS011;52986;44.028;20.466;2022-12-19T07:09:27;29.00;;;10.85;;
66179;SDS011;52986;44.028;20.466;2022-12-19T07:11:54;32.08;;;10.45;;
66179;SDS011;52986;44.028;20.466;2022-12-19T07:14:19;30.80;;;11.60;;
66179;SDS011;52986;44.028;20.466;2022-12-19T07:16:45;32.63;;;12.13;;
66179;SDS011;52986;44.028;20.466;2022-12-19T07:19:11;34.80;;;12.90;;
66179;SDS011;52986;44.028;20.466;2022-12-19T07:21:37;34.38;;;12.68;;
66179;SDS011;52986;44.028;20.466;2022-12-19T07:24:03;30.65;;;11.52;;
66179;SDS011;52986;44.028;20.466;2022-12-19T07:26:30;33.80;;;11.27;;
66179;SDS011;52986;44.028;20.466;2022-12-19T07:28:55;28.20;;;10.43;;
66179;SDS011;52986;44.028;20.466;2022-12-19T07:31:22;26.30;;;9.77;;
66179;SDS011;52986;44.028;20.466;2022-12-19T07:33:47;26.35;;;9.98;;
66179;SDS011;52986;44.028;20.466;2022-12-19T07:36:12;28.15;;;10.65;;
66179;SDS011;52986;44.028;20.466;2022-12-19T07:38:38;30.30;;;10.50;;
66179;SDS011;52986;44.028;20.466;2022-12-19T07:41:03;28.00;;;10.45;;
66179;SDS011;52986;44.028;20.466;2022-12-19T07:43:29;26.15;;;9.52;;
66179;SDS011;52986;44.028;20.466;2022-12-19T07:45:54;27.45;;;10.30;;
66179;SDS011;52986;44.028;20.466;2022-12-19T07:48:20;30.63;;;10.77;;
66179;SDS011;52986;44.028;20.466;2022-12-19T07:50:46;29.08;;;10.68;;
66179;SDS011;52986;44.028;20.466;2022-12-19T07:53:13;25.67;;;9.63;;
66179;SDS011;52986;44.028;20.466;2022-12-19T07:55:39;28.08;;;10.90;;
66179;SDS011;52986;44.028;20.466;2022-12-19T07:58:04;28.90;;;10.45;;
66179;SDS011;52986;44.028;20.466;2022-12-19T08:00:30;27.83;;;10.13;;
66179;SDS011;52986;44.028;20.466;2022-12-19T08:02:57;27.25;;;9.27;;
66179;SDS011;52986;44.028;20.466;2022-12-19T08:05:23;26.92;;;9.75;;
66179;SDS011;52986;44.028;20.466;2022-12-19T08:07:48;28.90;;;11.82;;
66179;SDS011;52986;44.028;20.466;2022-12-19T08:10:14;30.92;;;10.88;;
66179;SDS011;52986;44.028;20.466;2022-12-19T08:12:39;30.20;;;11.90;;
66179;SDS011;52986;44.028;20.466;2022-12-19T08:15:05;29.50;;;11.15;;
66179;SDS011;52986;44.028;20.466;2022-12-19T08:17:31;30.02;;;10.88;;
66179;SDS011;52986;44.028;20.466;2022-12-19T08:19:57;32.38;;;11.68;;
66179;SDS011;52986;44.028;20.466;2022-12-19T08:22:22;32.97;;;12.02;;
66179;SDS011;52986;44.028;20.466;2022-12-19T08:24:47;28.65;;;10.40;;
66179;SDS011;52986;44.028;20.466;2022-12-19T08:27:14;28.45;;;10.82;;
66179;SDS011;52986;44.028;20.466;2022-12-19T08:29:40;27.48;;;10.40;;
66179;SDS011;52986;44.028;20.466;2022-12-19T08:32:05;31.43;;;11.07;;
66179;SDS011;52986;44.028;20.466;2022-12-19T08:34:31;30.52;;;10.88;;
66179;SDS011;52986;44.028;20.466;2022-12-19T08:36:56;31.27;;;11.15;;
66179;SDS011;52986;44.028;20.466;2022-12-19T08:39:22;31.95;;;11.98;;
66179;SDS011;52986;44.028;20.466;2022-12-19T08:41:47;28.90;;;10.80;;
66179;SDS011;52986;44.028;20.466;2022-12-19T08:44:12;33.88;;;13.05;;
66179;SDS011;52986;44.028;20.466;2022-12-19T08:46:38;31.83;;;11.82;;
66179;SDS011;52986;44.028;20.466;2022-12-19T08:49:04;32.80;;;12.20;;
66179;SDS011;52986;44.028;20.466;2022-12-19T08:51:29;31.52;;;12.07;;
66179;SDS011;52986;44.028;20.466;2022-12-19T08:53:55;37.08;;;12.73;;
66179;SDS011;52986;44.028;20.466;2022-12-19T08:56:21;33.30;;;12.45;;
66179;SDS011;52986;44.028;20.466;2022-12-19T08:58:46;30.35;;;12.63;;
66179;SDS011;52986;44.028;20.466;2022-12-19T09:01:13;29.70;;;11.32;;
66179;SDS011;52986;44.028;20.466;2022-12-19T09:03:42;31.40;;;12.60;;
66179;SDS011;52986;44.028;20.466;2022-12-19T09:06:08;33.38;;;12.30;;
66179;SDS011;52986;44.028;20.466;2022-12-19T09:08:35;31.00;;;13.02;;
66179;SDS011;52986;44.028;20.466;2022-12-19T09:11:05;35.15;;;13.02;;
66179;SDS011;52986;44.028;20.466;2022-12-19T09:13:33;37.75;;;13.77;;
66179;SDS011;52986;44.028;20.466;2022-12-19T09:18:25;30.05;;;11.77;;
66179;SDS011;52986;44.028;20.466;2022-12-19T09:20:54;33.15;;;13.57;;
66179;SDS011;52986;44.028;20.466;2022-12-19T09:23:20;34.35;;;12.25;;
66179;SDS011;52986;44.028;20.466;2022-12-19T09:25:46;28.65;;;11.30;;
66179;SDS011;52986;44.028;20.466;2022-12-19T09:28:12;30.08;;;11.60;;
66179;SDS011;52986;44.028;20.466;2022-12-19T09:30:38;30.25;;;11.88;;
66179;SDS011;52986;44.028;20.466;2022-12-19T09:33:03;29.25;;;11.82;;
66179;SDS011;52986;44.028;20.466;2022-12-19T09:35:28;34.65;;;13.57;;
66179;SDS011;52986;44.028;20.466;2022-12-19T09:37:54;34.83;;;13.52;;
66179;SDS011;52986;44.028;20.466;2022-12-19T09:40:19;30.35;;;12.73;;
66179;SDS011;52986;44.028;20.466;2022-12-19T09:43:07;33.08;;;12.85;;
66179;SDS011;52986;44.028;20.466;2022-12-19T09:47:59;28.60;;;11.43;;
66179;SDS011;52986;44.028;20.466;2022-12-19T09:53:16;36.65;;;14.20;;
66179;SDS011;52986;44.028;20.466;2022-12-19T09:55:46;31.88;;;14.52;;
66179;SDS011;52986;44.028;20.466;2022-12-19T10:00:57;29.42;;;12.15;;
66179;SDS011;52986;44.028;20.466;2022-12-19T10:06:18;33.67;;;15.45;;
66179;SDS011;52986;44.028;20.466;2022-12-19T10:08:43;32.72;;;15.07;;
66179;SDS011;52986;44.028;20.466;2022-12-19T10:11:18;29.55;;;13.50;;
66179;SDS011;52986;44.028;20.466;2022-12-19T10:14:10;26.90;;;11.90;;
66179;SDS011;52986;44.028;20.466;2022-12-19T10:27:10;35.40;;;15.88;;
66179;SDS011;52986;44.028;20.466;2022-12-19T10:35:13;27.77;;;12.10;;
66179;SDS011;52986;44.028;20.466;2022-12-19T10:37:45;36.00;;;15.75;;
66179;SDS011;52986;44.028;20.466;2022-12-19T10:45:32;26.65;;;11.98;;
66179;SDS011;52986;44.028;20.466;2022-12-19T10:48:03;28.98;;;12.52;;
66179;SDS011;52986;44.028;20.466;2022-12-19T10:50:29;26.65;;;11.70;;
66179;SDS011;52986;44.028;20.466;2022-12-19T10:55:47;32.50;;;12.88;;
66179;SDS011;52986;44.028;20.466;2022-12-19T10:58:21;33.67;;;13.65;;
66179;SDS011;52986;44.028;20.466;2022-12-19T11:00:55;26.42;;;11.38;;
66179;SDS011;52986;44.028;20.466;2022-12-19T11:03:25;25.85;;;10.68;;
66179;SDS011;52986;44.028;20.466;2022-12-19T11:05:52;33.60;;;14.57;;
66179;SDS011;52986;44.028;20.466;2022-12-19T11:08:21;35.22;;;14.70;;
66179;SDS011;52986;44.028;20.466;2022-12-19T11:10:58;35.13;;;13.55;;
66179;SDS011;52986;44.028;20.466;2022-12-19T11:13:47;40.75;;;17.52;;
66179;SDS011;52986;44.028;20.466;2022-12-19T11:16:19;37.10;;;15.23;;
66179;SDS011;52986;44.028;20.466;2022-12-19T11:18:47;35.97;;;14.85;;
66179;SDS011;52986;44.028;20.466;2022-12-19T11:21:28;33.53;;;13.63;;
66179;SDS011;52986;44.028;20.466;2022-12-19T11:29:20;31.58;;;12.90;;
66179;SDS011;52986;44.028;20.466;2022-12-19T11:31:44;25.63;;;10.20;;
66179;SDS011;52986;44.028;20.466;2022-12-19T11:34:21;18.02;;;6.88;;
66179;SDS011;52986;44.028;20.466;2022-12-19T11:53:28;19.88;;;7.80;;
66179;SDS011;52986;44.028;20.466;2022-12-19T11:58:33;22.20;;;8.57;;
66179;SDS011;52986;44.028;20.466;2022-12-19T12:06:11;21.63;;;8.05;;
66179;SDS011;52986;44.028;20.466;2022-12-19T12:11:22;21.48;;;7.63;;
66179;SDS011;52986;44.028;20.466;2022-12-19T12:16:43;23.00;;;9.10;;
66179;SDS011;52986;44.028;20.466;2022-12-19T12:19:35;21.38;;;8.85;;
66179;SDS011;52986;44.028;20.466;2022-12-19T12:22:31;19.33;;;7.65;;
66179;SDS011;52986;44.028;20.466;2022-12-19T12:30:19;21.52;;;8.23;;
66179;SDS011;52986;44.028;20.466;2022-12-19T12:33:07;20.15;;;7.97;;
66179;SDS011;52986;44.028;20.466;2022-12-19T12:35:44;20.98;;;8.38;;
66179;SDS011;52986;44.028;20.466;2022-12-19T12:44:11;19.35;;;7.70;;
66179;SDS011;52986;44.028;20.466;2022-12-19T12:46:47;26.13;;;10.35;;
66179;SDS011;52986;44.028;20.466;2022-12-19T12:52:03;23.00;;;9.23;;
66179;SDS011;52986;44.028;20.466;2022-12-19T12:54:38;24.63;;;9.75;;
66179;SDS011;52986;44.028;20.466;2022-12-19T12:57:14;19.83;;;7.85;;
66179;SDS011;52986;44.028;20.466;2022-12-19T12:59:44;24.08;;;9.10;;
66179;SDS011;52986;44.028;20.466;2022-12-19T13:02:15;24.48;;;9.45;;
66179;SDS011;52986;44.028;20.466;2022-12-19T13:04:55;25.83;;;9.95;;
66179;SDS011;52986;44.028;20.466;2022-12-19T13:10:27;35.53;;;13.73;;
66179;SDS011;52986;44.028;20.466;2022-12-19T13:27:54;21.35;;;8.27;;
66179;SDS011;52986;44.028;20.466;2022-12-19T13:30:20;20.75;;;8.30;;
66179;SDS011;52986;44.028;20.466;2022-12-19T13:45:51;23.95;;;9.02;;
66179;SDS011;52986;44.028;20.466;2022-12-19T13:48:21;24.55;;;9.05;;
66179;SDS011;52986;44.028;20.466;2022-12-19T13:50:52;20.00;;;8.30;;
66179;SDS011;52986;44.028;20.466;2022-12-19T13:53:21;24.35;;;9.43;;
66179;SDS011;52986;44.028;20.466;2022-12-19T13:55:52;22.23;;;8.85;;
66179;SDS011;52986;44.028;20.466;2022-12-19T13:58:20;26.48;;;9.50;;
66179;SDS011;52986;44.028;20.466;2022-12-19T14:00:55;24.60;;;9.15;;
66179;SDS011;52986;44.028;20.466;2022-12-19T14:03:58;25.73;;;9.98;;
66179;SDS011;52986;44.028;20.466;2022-12-19T14:08:44;32.38;;;12.07;;
66179;SDS011;52986;44.028;20.466;2022-12-19T14:11:11;31.75;;;12.45;;
66179;SDS011;52986;44.028;20.466;2022-12-19T14:13:43;38.55;;;13.30;;
66179;SDS011;52986;44.028;20.466;2022-12-19T14:16:30;34.83;;;13.43;;
66179;SDS011;52986;44.028;20.466;2022-12-19T14:18:55;38.13;;;14.55;;
66179;SDS011;52986;44.028;20.466;2022-12-19T14:21:22;35.20;;;13.43;;
66179;SDS011;52986;44.028;20.466;2022-12-19T14:23:51;30.20;;;11.02;;
66179;SDS011;52986;44.028;20.466;2022-12-19T14:26:32;28.27;;;10.68;;
66179;SDS011;52986;44.028;20.466;2022-12-19T14:29:08;24.23;;;9.40;;
66179;SDS011;52986;44.028;20.466;2022-12-19T14:31:41;28.08;;;10.80;;
66179;SDS011;52986;44.028;20.466;2022-12-19T14:34:09;30.65;;;11.25;;
66179;SDS011;52986;44.028;20.466;2022-12-19T14:36:51;25.45;;;9.90;;
66179;SDS011;52986;44.028;20.466;2022-12-19T14:39:18;27.70;;;10.45;;
66179;SDS011;52986;44.028;20.466;2022-12-19T14:41:47;28.40;;;9.52;;
66179;SDS011;52986;44.028;20.466;2022-12-19T14:47:11;29.75;;;10.50;;
66179;SDS011;52986;44.028;20.466;2022-12-19T14:49:38;28.58;;;11.57;;
66179;SDS011;52986;44.028;20.466;2022-12-19T14:52:04;34.78;;;13.90;;
66179;SDS011;52986;44.028;20.466;2022-12-19T14:57:57;39.20;;;15.60;;
66179;SDS011;52986;44.028;20.466;2022-12-19T15:00:32;50.75;;;20.15;;
66179;SDS011;52986;44.028;20.466;2022-12-19T15:03:34;47.80;;;18.85;;
66179;SDS011;52986;44.028;20.466;2022-12-19T15:06:22;51.85;;;19.85;;
66179;SDS011;52986;44.028;20.466;2022-12-19T15:08:53;48.85;;;18.95;;
66179;SDS011;52986;44.028;20.466;2022-12-19T15:11:31;46.92;;;19.63;;
66179;SDS011;52986;44.028;20.466;2022-12-19T15:16:59;46.42;;;17.75;;
66179;SDS011;52986;44.028;20.466;2022-12-19T15:19:29;71.68;;;26.50;;
66179;SDS011;52986;44.028;20.466;2022-12-19T15:21:54;100.70;;;33.70;;
66179;SDS011;52986;44.028;20.466;2022-12-19T15:24:20;134.23;;;42.22;;
66179;SDS011;52986;44.028;20.466;2022-12-19T15:26:47;105.93;;;35.78;;
66179;SDS011;52986;44.028;20.466;2022-12-19T15:29:16;81.38;;;30.38;;
66179;SDS011;52986;44.028;20.466;2022-12-19T15:31:42;80.70;;;29.80;;
66179;SDS011;52986;44.028;20.466;2022-12-19T15:34:25;84.57;;;31.48;;
66179;SDS011;52986;44.028;20.466;2022-12-19T15:36:52;105.50;;;37.33;;
66179;SDS011;52986;44.028;20.466;2022-12-19T15:39:19;101.85;;;37.20;;
66179;SDS011;52986;44.028;20.466;2022-12-19T15:41:46;115.70;;;41.72;;
66179;SDS011;52986;44.028;20.466;2022-12-19T15:44:17;64.40;;;24.55;;
66179;SDS011;52986;44.028;20.466;2022-12-19T15:46:46;56.88;;;21.75;;
66179;SDS011;52986;44.028;20.466;2022-12-19T15:49:16;65.32;;;23.95;;
66179;SDS011;52986;44.028;20.466;2022-12-19T15:51:43;66.43;;;25.67;;
66179;SDS011;52986;44.028;20.466;2022-12-19T15:54:08;71.45;;;27.70;;
66179;SDS011;52986;44.028;20.466;2022-12-19T15:56:35;84.25;;;33.17;;
66179;SDS011;52986;44.028;20.466;2022-12-19T15:59:03;58.35;;;21.45;;
66179;SDS011;52986;44.028;20.466;2022-12-19T16:01:29;36.10;;;14.40;;
66179;SDS011;52986;44.028;20.466;2022-12-19T16:03:57;45.35;;;16.00;;
66179;SDS011;52986;44.028;20.466;2022-12-19T16:06:24;41.63;;;16.33;;
66179;SDS011;52986;44.028;20.466;2022-12-19T16:08:49;40.10;;;16.45;;
66179;SDS011;52986;44.028;20.466;2022-12-19T16:11:16;42.65;;;16.52;;
66179;SDS011;52986;44.028;20.466;2022-12-19T16:13:45;43.35;;;16.02;;
66179;SDS011;52986;44.028;20.466;2022-12-19T16:16:13;36.90;;;13.63;;
66179;SDS011;52986;44.028;20.466;2022-12-19T16:18:39;35.47;;;14.77;;
66179;SDS011;52986;44.028;20.466;2022-12-19T16:21:05;42.50;;;16.20;;
66179;SDS011;52986;44.028;20.466;2022-12-19T16:23:30;46.30;;;17.02;;
66179;SDS011;52986;44.028;20.466;2022-12-19T16:25:56;45.85;;;17.02;;
66179;SDS011;52986;44.028;20.466;2022-12-19T16:28:29;47.40;;;18.50;;
66179;SDS011;52986;44.028;20.466;2022-12-19T16:30:58;43.58;;;16.33;;
66179;SDS011;52986;44.028;20.466;2022-12-19T16:33:25;47.63;;;17.20;;
66179;SDS011;52986;44.028;20.466;2022-12-19T16:35:53;45.35;;;18.80;;
66179;SDS011;52986;44.028;20.466;2022-12-19T16:38:19;66.28;;;23.83;;
66179;SDS011;52986;44.028;20.466;2022-12-19T16:40:45;55.60;;;20.58;;
66179;SDS011;52986;44.028;20.466;2022-12-19T16:45:56;77.40;;;29.05;;
66179;SDS011;52986;44.028;20.466;2022-12-19T16:48:24;60.10;;;25.17;;
66179;SDS011;52986;44.028;20.466;2022-12-19T16:50:55;47.50;;;18.17;;
66179;SDS011;52986;44.028;20.466;2022-12-19T16:53:21;50.47;;;20.63;;
66179;SDS011;52986;44.028;20.466;2022-12-19T16:55:46;55.83;;;22.45;;
66179;SDS011;52986;44.028;20.466;2022-12-19T16:58:15;63.28;;;23.85;;
66179;SDS011;52986;44.028;20.466;2022-12-19T17:00:44;49.47;;;19.42;;